Погода Болвадинна 2 недели

Эгейский регион, Турция

19 июня-02 июля
  • 19июня
    Сегодня
    +19°
    +37°
    Небольшая облачность
    ВремяПогодаТемператураВлажностьДавлениеВетер, м/сВероятность осадков
    00:00Ясно и безоблачно+25°C44 %679 мм2.7 м/с2 %
    03:00Ясно и безоблачно+21°C55 %679 мм1.1 м/с2 %
    06:00Ясно и безоблачно+19°C59 %679 мм0.6 м/с2 %
    09:00Ясно и безоблачно+26°C41 %681 мм2.3 м/с2 %
    12:00Ясно и безоблачно+32°C27 %681 мм3.7 м/с2 %
    15:00Небольшая облачность+35°C21 %681 мм3.4 м/с2 %
    18:00Небольшая облачность, возможен дождь с грозой+35°C23 %681 мм2.4 м/с16 %
    21:00Небольшая облачность+29°C38 %680 мм2.1 м/с6 %
  • 20июня
    Четверг
    +18°
    +37°
    Небольшая облачность
    ВремяПогодаТемператураВлажностьДавлениеВетер, м/сВероятность осадков
    00:00Ясно и безоблачно+25°C48 %679 мм2.1 м/с1 %
    03:00Ясно и безоблачно+22°C62 %678 мм1.1 м/с2 %
    06:00Ясно и безоблачно+20°C67 %678 мм0.7 м/с2 %
    09:00Ясно и безоблачно+27°C38 %680 мм3.0 м/с2 %
    12:00Ясно и безоблачно+32°C24 %680 мм3.9 м/с2 %
    15:00Небольшая облачность+36°C18 %680 мм2.9 м/с2 %
    18:00Практически безоблачно+36°C18 %679 мм2.3 м/с2 %
    21:00Ясно и безоблачно+29°C26 %678 мм2.1 м/с2 %
  • 21июня
    Пятница
    +17°
    +35°
    Ясно и безоблачно
    ВремяПогодаТемператураВлажностьДавлениеВетер, м/сВероятность осадков
    00:00Ясно и безоблачно+26°C49 %678 мм4.7 м/с2 %
    03:00Ясно и безоблачно+21°C63 %678 мм0.8 м/с2 %
    06:00Ясно и безоблачно+19°C67 %678 мм1.7 м/с2 %
    09:00Ясно и безоблачно+26°C39 %680 мм4.8 м/с2 %
    12:00Ясно и безоблачно+31°C26 %680 мм4.4 м/с2 %
    15:00Ясно и безоблачно+34°C17 %679 мм4.5 м/с2 %
    18:00Ясно и безоблачно+35°C15 %678 мм4.3 м/с2 %
    21:00Ясно и безоблачно+28°C21 %677 мм2.4 м/с2 %
  • 22июня
    Суббота
    +16°
    +35°
    Ясно и безоблачно
    ВремяПогодаТемператураВлажностьДавлениеВетер, м/сВероятность осадков
    00:00Ясно и безоблачно+24°C38 %677 мм3.7 м/с2 %
    03:00Ясно и безоблачно+20°C62 %676 мм2.0 м/с2 %
    06:00Ясно и безоблачно+18°C69 %676 мм1.3 м/с2 %
    09:00Ясно и безоблачно+24°C40 %677 мм3.7 м/с2 %
    12:00Ясно и безоблачно+30°C23 %677 мм3.7 м/с2 %
    15:00Ясно и безоблачно+35°C15 %677 мм3.4 м/с2 %
    18:00Ясно и безоблачно+35°C13 %676 мм3.3 м/с2 %
    21:00Ясно и безоблачно+28°C21 %675 мм1.6 м/с2 %
  • 23июня
    Воскресенье
    +17°
    +36°
    Ясно и безоблачно
    ВремяПогодаТемператураВлажностьДавлениеВетер, м/сВероятность осадков
    00:00Ясно и безоблачно+24°C45 %675 мм2.4 м/с2 %
    03:00Ясно и безоблачно+21°C50 %674 мм0.8 м/с2 %
    06:00Ясно и безоблачно+18°C51 %674 мм0.7 м/с2 %
    09:00Ясно и безоблачно+25°C27 %676 мм2.2 м/с2 %
    12:00Ясно и безоблачно+31°C11 %676 мм2.6 м/с2 %
    15:00Ясно и безоблачно+36°C8 %676 мм2.8 м/с2 %
    18:00Ясно и безоблачно+36°C8 %676 мм2.8 м/с2 %
    21:00Ясно и безоблачно+27°C14 %675 мм1.5 м/с2 %
Мы используем cookies
Соглашаюсь